createdAt,value
2023-02-24T00:00:31.931Z,28.60
2023-02-24T00:03:05.639Z,30.60
2023-02-24T00:05:34.533Z,29.60
2023-02-24T00:08:01.802Z,31.60
2023-02-24T00:10:29.517Z,32.70
2023-02-24T00:12:56.407Z,27.90
2023-02-24T00:15:24.644Z,28.90
2023-02-24T00:17:51.835Z,28.80
2023-02-24T00:20:18.719Z,28.00
2023-02-24T00:22:45.950Z,23.90
2023-02-24T00:25:14.035Z,23.40
2023-02-24T00:27:42.038Z,27.30
2023-02-24T00:30:11.386Z,32.40
2023-02-24T00:32:39.952Z,33.30
2023-02-24T00:35:08.290Z,33.30
2023-02-24T00:37:35.506Z,34.10
2023-02-24T00:40:10.514Z,32.30
2023-02-24T00:42:42.054Z,29.90
2023-02-24T00:45:09.810Z,30.00
2023-02-24T00:47:41.510Z,25.80
2023-02-24T00:50:09.132Z,27.10
2023-02-24T00:52:36.412Z,29.20
2023-02-24T00:55:13.450Z,28.50
2023-02-24T00:57:40.846Z,27.80
2023-02-24T01:00:16.044Z,26.50
2023-02-24T01:02:47.388Z,26.80
2023-02-24T01:05:17.187Z,26.00
2023-02-24T01:07:45.470Z,27.70
2023-02-24T01:10:12.417Z,25.10
2023-02-24T01:12:49.118Z,24.30
2023-02-24T01:15:18.967Z,25.10
2023-02-24T01:17:49.333Z,23.00
2023-02-24T01:20:19.928Z,24.50
2023-02-24T01:22:52.747Z,21.90
2023-02-24T01:25:21.865Z,23.90
2023-02-24T01:27:48.857Z,23.10
2023-02-24T01:30:17.594Z,24.00
2023-02-24T01:32:46.734Z,24.50
2023-02-24T01:35:15.242Z,25.90
2023-02-24T01:37:43.178Z,26.80
2023-02-24T01:40:18.065Z,26.90
2023-02-24T01:42:47.199Z,24.70
2023-02-24T01:45:29.126Z,23.20
2023-02-24T01:48:00.780Z,22.90
2023-02-24T01:50:28.820Z,27.90
2023-02-24T01:53:00.280Z,25.90
2023-02-24T01:55:36.236Z,26.10
2023-02-24T01:58:10.846Z,24.90
2023-02-24T02:00:45.141Z,27.90
2023-02-24T02:03:19.062Z,25.10
2023-02-24T02:05:48.047Z,23.50
2023-02-24T02:08:18.067Z,22.60
2023-02-24T02:10:46.578Z,25.20
2023-02-24T02:13:21.311Z,25.00
2023-02-24T02:15:59.020Z,24.40
2023-02-24T02:18:42.500Z,23.30
2023-02-24T02:22:03.502Z,21.40
2023-02-24T02:24:51.052Z,21.70
2023-02-24T02:27:37.932Z,21.60
2023-02-24T02:30:37.907Z,20.00
2023-02-24T02:33:27.197Z,18.30
2023-02-24T02:36:21.769Z,20.00
2023-02-24T02:39:11.565Z,21.60
2023-02-24T02:41:49.393Z,20.10
2023-02-24T02:44:23.455Z,20.70
2023-02-24T02:47:04.883Z,20.30
2023-02-24T02:49:38.124Z,19.80
2023-02-24T02:52:15.034Z,23.80
2023-02-24T02:55:00.636Z,22.70
2023-02-24T02:57:31.571Z,21.70
2023-02-24T03:00:14.739Z,22.00
2023-02-24T03:02:49.169Z,28.00
2023-02-24T03:05:21.241Z,24.50
2023-02-24T03:07:56.406Z,23.00
2023-02-24T03:10:27.258Z,23.40
2023-02-24T03:12:58.287Z,25.90
2023-02-24T03:15:30.413Z,23.70
2023-02-24T03:18:09.658Z,19.20
2023-02-24T03:20:46.700Z,20.20
2023-02-24T03:23:26.752Z,23.70
2023-02-24T03:26:05.484Z,18.90
2023-02-24T03:29:07.179Z,18.80
2023-02-24T03:32:17.082Z,18.90
2023-02-24T03:34:59.105Z,19.30
2023-02-24T03:37:29.530Z,18.90
2023-02-24T03:39:59.149Z,18.00
2023-02-24T03:42:33.231Z,19.30
2023-02-24T03:45:01.428Z,21.90
2023-02-24T03:47:29.802Z,18.90
2023-02-24T03:49:57.104Z,18.90
2023-02-24T03:52:40.477Z,20.40
2023-02-24T03:55:34.634Z,20.20
2023-02-24T03:58:27.863Z,19.60
2023-02-24T04:01:18.205Z,19.50
2023-02-24T04:03:57.118Z,20.20
2023-02-24T04:06:59.867Z,20.10
2023-02-24T04:09:34.209Z,20.30
2023-02-24T04:12:15.308Z,18.70
2023-02-24T04:14:45.380Z,20.30
2023-02-24T04:17:18.756Z,17.60
2023-02-24T04:19:49.231Z,17.60
2023-02-24T04:22:23.129Z,15.10
2023-02-24T04:24:56.089Z,15.30
2023-02-24T04:27:24.789Z,16.50
2023-02-24T04:29:55.972Z,16.10
2023-02-24T04:32:26.924Z,11.80
2023-02-24T04:35:11.671Z,15.90
2023-02-24T04:37:43.995Z,14.90
2023-02-24T04:40:17.158Z,15.90
2023-02-24T04:42:48.519Z,14.80
2023-02-24T04:45:22.745Z,15.50
2023-02-24T04:47:55.634Z,15.70
2023-02-24T04:50:25.320Z,16.70
2023-02-24T04:52:55.510Z,15.90
2023-02-24T04:55:26.069Z,15.30
2023-02-24T04:57:53.527Z,15.40
2023-02-24T05:00:22.498Z,15.70
2023-02-24T05:02:55.473Z,17.20
2023-02-24T05:05:27.260Z,16.40
2023-02-24T05:08:06.504Z,15.50
2023-02-24T05:10:41.056Z,14.70
2023-02-24T05:13:15.449Z,13.70
2023-02-24T05:15:45.825Z,14.20
2023-02-24T05:18:16.568Z,14.40
2023-02-24T05:21:06.779Z,13.00
2023-02-24T05:23:38.656Z,14.00
2023-02-24T05:26:26.115Z,13.60
2023-02-24T05:28:55.769Z,12.00
2023-02-24T05:31:28.351Z,12.10
2023-02-24T05:33:58.730Z,12.30
2023-02-24T05:36:29.086Z,11.40
2023-02-24T05:39:06.810Z,10.20
2023-02-24T05:41:35.940Z,10.30
2023-02-24T05:44:09.444Z,10.70
2023-02-24T05:46:43.947Z,11.00
2023-02-24T05:49:22.799Z,10.30
2023-02-24T05:51:54.198Z,10.40
2023-02-24T05:54:32.810Z,11.20
2023-02-24T05:57:05.750Z,10.30
2023-02-24T05:59:33.667Z,10.90
2023-02-24T06:02:13.167Z,9.50
2023-02-24T06:04:53.337Z,10.10
2023-02-24T06:07:24.179Z,9.50
2023-02-24T06:09:58.285Z,10.40
2023-02-24T06:12:39.271Z,10.90
2023-02-24T06:15:10.297Z,11.20
2023-02-24T06:17:39.003Z,10.90
2023-02-24T06:20:13.413Z,11.00
2023-02-24T06:22:41.909Z,10.80
2023-02-24T06:25:13.521Z,10.50
2023-02-24T06:27:42.580Z,11.40
2023-02-24T06:30:10.812Z,11.00
2023-02-24T06:32:38.624Z,11.20
2023-02-24T06:35:05.830Z,10.80
2023-02-24T06:37:35.311Z,11.40
2023-02-24T06:43:10.478Z,11.10
2023-02-24T06:45:37.343Z,9.70
2023-02-24T06:48:04.174Z,10.20
2023-02-24T06:50:32.293Z,9.10
2023-02-24T06:53:00.154Z,10.30
2023-02-24T06:55:27.921Z,11.20
2023-02-24T06:58:04.366Z,8.90
2023-02-24T07:00:38.255Z,9.60
2023-02-24T07:05:53.608Z,8.50
2023-02-24T07:08:22.581Z,10.00
2023-02-24T07:10:55.362Z,7.30
2023-02-24T07:13:24.365Z,12.10
2023-02-24T07:16:06.676Z,13.90
2023-02-24T07:18:35.744Z,14.10
2023-02-24T07:21:11.012Z,15.10
2023-02-24T07:23:40.356Z,15.90
2023-02-24T07:26:13.424Z,17.20
2023-02-24T07:28:43.109Z,14.10
2023-02-24T07:31:13.391Z,13.50
2023-02-24T07:33:44.648Z,10.50
2023-02-24T07:36:15.547Z,11.30
2023-02-24T07:38:44.224Z,10.70
2023-02-24T07:41:14.760Z,10.50
2023-02-24T07:43:43.489Z,8.00
2023-02-24T07:46:13.643Z,8.10
2023-02-24T07:48:42.307Z,9.10
2023-02-24T07:51:11.679Z,9.30
2023-02-24T07:53:41.488Z,10.00
2023-02-24T07:56:17.170Z,10.30
2023-02-24T07:58:51.183Z,8.90
2023-02-24T08:01:27.354Z,9.20
2023-02-24T08:03:59.502Z,9.00
2023-02-24T08:06:37.986Z,8.60
2023-02-24T08:09:17.967Z,9.80
2023-02-24T08:11:48.594Z,8.80
2023-02-24T08:14:17.123Z,9.60
2023-02-24T08:16:47.630Z,9.10
2023-02-24T08:19:20.436Z,9.40
2023-02-24T08:21:51.529Z,10.20
2023-02-24T08:24:25.218Z,9.20
2023-02-24T08:27:08.795Z,8.90
2023-02-24T08:29:57.520Z,9.30
2023-02-24T08:32:33.240Z,7.90
2023-02-24T08:35:17.959Z,8.10
2023-02-24T08:37:49.501Z,7.70
2023-02-24T08:40:31.670Z,9.80
2023-02-24T08:43:15.365Z,7.90
2023-02-24T08:45:45.304Z,8.50
2023-02-24T08:48:25.988Z,7.60
2023-02-24T08:50:58.092Z,7.70
2023-02-24T08:53:30.887Z,8.20
2023-02-24T08:56:11.854Z,7.30
2023-02-24T08:58:47.815Z,8.70
2023-02-24T09:01:23.371Z,8.90
2023-02-24T09:03:58.094Z,8.40
2023-02-24T09:06:43.384Z,8.20
2023-02-24T09:09:18.154Z,9.30
2023-02-24T09:11:55.263Z,9.30
2023-02-24T09:14:29.305Z,8.50
2023-02-24T09:17:01.545Z,9.00
2023-02-24T09:19:47.438Z,7.90
2023-02-24T09:22:32.629Z,8.70
2023-02-24T09:25:25.267Z,8.70
2023-02-24T09:27:55.358Z,8.40
2023-02-24T09:30:35.198Z,9.60
2023-02-24T09:33:20.626Z,8.20
2023-02-24T09:35:51.712Z,9.10
2023-02-24T09:38:36.248Z,9.80
2023-02-24T09:41:29.459Z,8.50
2023-02-24T09:44:18.603Z,9.10
2023-02-24T09:46:59.636Z,9.00
2023-02-24T09:49:46.099Z,8.80
2023-02-24T09:52:16.942Z,9.10
2023-02-24T09:55:06.242Z,8.90
2023-02-24T09:58:27.017Z,8.70
2023-02-24T10:01:20.387Z,9.10
2023-02-24T10:04:18.638Z,9.30
2023-02-24T10:06:57.223Z,7.90
2023-02-24T10:09:33.976Z,8.00
2023-02-24T10:12:31.794Z,8.80
2023-02-24T10:15:31.747Z,8.10
2023-02-24T10:18:26.703Z,7.60
2023-02-24T10:21:06.011Z,7.40
2023-02-24T10:23:56.062Z,6.70
2023-02-24T10:26:32.327Z,7.60
2023-02-24T10:29:21.952Z,7.80
2023-02-24T10:31:57.282Z,7.20
2023-02-24T10:34:31.344Z,8.10
2023-02-24T10:37:05.885Z,7.10
2023-02-24T10:39:33.223Z,7.10
2023-02-24T10:42:15.458Z,6.10
2023-02-24T10:45:09.757Z,7.20
2023-02-24T10:47:43.896Z,7.20
2023-02-24T10:50:23.180Z,7.20
2023-02-24T10:52:56.668Z,7.00
2023-02-24T10:55:44.698Z,6.80
2023-02-24T10:58:28.103Z,7.60
2023-02-24T11:01:11.506Z,8.20
2023-02-24T11:04:12.052Z,7.20
2023-02-24T11:06:52.089Z,7.10
2023-02-24T11:09:28.679Z,7.10
2023-02-24T11:12:30.903Z,7.60
2023-02-24T11:15:22.712Z,6.30
2023-02-24T11:17:59.916Z,6.10
2023-02-24T11:20:49.378Z,7.50
2023-02-24T11:23:27.419Z,6.50
2023-02-24T11:26:10.375Z,8.60
2023-02-24T11:29:17.064Z,8.00
2023-02-24T11:32:18.398Z,9.00
2023-02-24T11:34:58.986Z,6.60
2023-02-24T11:37:43.160Z,7.10
2023-02-24T11:40:25.426Z,6.10
2023-02-24T11:43:23.933Z,7.10
2023-02-24T11:46:11.682Z,5.90
2023-02-24T11:48:46.725Z,7.40
2023-02-24T11:51:23.053Z,6.70
2023-02-24T11:54:22.858Z,7.40
2023-02-24T11:56:55.283Z,7.50
2023-02-24T11:59:46.464Z,7.80
2023-02-24T12:02:13.895Z,8.20
2023-02-24T12:05:00.190Z,8.30
2023-02-24T12:07:32.607Z,8.20
2023-02-24T12:10:16.582Z,8.20
2023-02-24T12:13:07.040Z,8.90
2023-02-24T12:15:52.643Z,7.50
2023-02-24T12:18:33.415Z,9.30
2023-02-24T12:21:07.454Z,8.20
2023-02-24T12:23:38.819Z,7.90
2023-02-24T12:26:20.018Z,8.60
2023-02-24T12:29:20.665Z,41.30
2023-02-24T12:32:07.255Z,12.50
2023-02-24T12:34:43.018Z,9.50
2023-02-24T12:37:34.422Z,7.90
2023-02-24T12:40:01.455Z,8.60
2023-02-24T12:42:37.672Z,9.10
2023-02-24T12:45:11.745Z,11.10
2023-02-24T12:47:57.520Z,8.50
2023-02-24T12:50:46.180Z,8.40
2023-02-24T12:53:22.331Z,10.20
2023-02-24T12:55:52.944Z,8.00
2023-02-24T12:58:33.555Z,7.70
2023-02-24T13:01:13.726Z,7.50
2023-02-24T13:04:14.878Z,8.70
2023-02-24T13:06:58.046Z,7.30
2023-02-24T13:12:21.315Z,8.30
2023-02-24T13:14:49.141Z,7.90
2023-02-24T13:17:21.875Z,7.60
2023-02-24T13:19:51.957Z,8.20
2023-02-24T13:22:26.372Z,8.10
2023-02-24T13:24:53.674Z,8.10
2023-02-24T13:27:28.420Z,9.10
2023-02-24T13:32:59.077Z,9.10
2023-02-24T13:35:26.104Z,8.70
2023-02-24T13:37:53.938Z,8.50
2023-02-24T13:40:26.763Z,8.10
2023-02-24T13:42:56.793Z,10.40
2023-02-24T13:45:36.867Z,11.20
2023-02-24T13:48:12.799Z,8.10
2023-02-24T13:50:51.762Z,9.60
2023-02-24T13:53:41.548Z,9.10
2023-02-24T13:56:29.805Z,9.70
2023-02-24T13:59:24.980Z,8.50
2023-02-24T14:01:58.245Z,8.80
2023-02-24T14:04:30.306Z,13.30
2023-02-24T14:07:03.371Z,8.90
2023-02-24T14:09:36.848Z,10.20
2023-02-24T14:12:18.828Z,9.00
2023-02-24T14:14:47.080Z,7.80
2023-02-24T14:17:28.212Z,8.30
2023-02-24T14:20:07.238Z,7.00
2023-02-24T14:22:41.969Z,7.30
2023-02-24T14:25:11.015Z,8.40
2023-02-24T14:27:43.991Z,7.10
2023-02-24T14:30:40.816Z,6.70
2023-02-24T14:33:29.955Z,7.10
2023-02-24T14:36:14.477Z,6.80
2023-02-24T14:38:42.969Z,7.40
2023-02-24T14:41:22.369Z,6.80
2023-02-24T14:43:51.004Z,7.00
2023-02-24T14:46:18.714Z,22.20
2023-02-24T14:48:51.152Z,9.90
2023-02-24T14:51:36.488Z,9.70
2023-02-24T14:54:15.212Z,7.70
2023-02-24T14:56:42.275Z,7.00
2023-02-24T14:59:31.113Z,7.30
2023-02-24T15:01:59.288Z,6.30
2023-02-24T15:04:26.516Z,8.00
2023-02-24T15:06:54.158Z,7.10
2023-02-24T15:09:25.199Z,6.90
2023-02-24T15:11:55.518Z,11.40
2023-02-24T15:14:32.077Z,9.50
2023-02-24T15:17:03.246Z,8.40
2023-02-24T15:19:43.573Z,8.80
2023-02-24T15:22:47.667Z,8.30
2023-02-24T15:25:42.005Z,7.30
2023-02-24T15:28:32.193Z,6.90
2023-02-24T15:31:02.680Z,8.90
2023-02-24T15:33:43.655Z,6.80
2023-02-24T15:36:23.566Z,7.40
2023-02-24T15:38:59.440Z,6.10
2023-02-24T15:41:38.656Z,5.70
2023-02-24T15:44:23.127Z,7.90
2023-02-24T15:46:50.204Z,10.30
2023-02-24T15:49:17.321Z,7.30
2023-02-24T15:51:48.303Z,8.50
2023-02-24T15:54:41.939Z,8.50
2023-02-24T15:57:11.806Z,7.60
2023-02-24T15:59:40.028Z,8.70
2023-02-24T16:02:34.615Z,9.20
2023-02-24T16:05:01.565Z,9.30
2023-02-24T16:07:31.813Z,8.50
2023-02-24T16:10:00.550Z,8.90
2023-02-24T16:12:48.956Z,7.50
2023-02-24T16:15:26.533Z,7.70
2023-02-24T16:17:54.872Z,7.50
2023-02-24T16:20:27.103Z,7.60
2023-02-24T16:22:56.582Z,8.10
2023-02-24T16:25:25.880Z,8.30
2023-02-24T16:27:56.713Z,9.30
2023-02-24T16:30:29.865Z,8.70
2023-02-24T16:33:00.003Z,6.70
2023-02-24T16:35:28.000Z,8.00
2023-02-24T16:37:55.032Z,7.80
2023-02-24T16:40:30.272Z,8.10
2023-02-24T16:42:57.921Z,8.50
2023-02-24T16:45:29.125Z,10.00
2023-02-24T16:48:02.527Z,9.90
2023-02-24T16:50:39.681Z,11.40
2023-02-24T16:53:08.895Z,45.70
2023-02-24T16:55:37.522Z,30.50
2023-02-24T16:58:04.399Z,14.20
2023-02-24T17:00:32.190Z,11.80
2023-02-24T17:02:59.397Z,10.20
2023-02-24T17:05:27.450Z,10.50
2023-02-24T17:07:56.786Z,10.40
2023-02-24T17:10:28.131Z,12.20
2023-02-24T17:12:55.381Z,12.10
2023-02-24T17:15:24.274Z,11.80
2023-02-24T17:17:52.019Z,12.90
2023-02-24T17:20:20.378Z,12.50
2023-02-24T17:25:25.071Z,10.60
2023-02-24T17:27:54.019Z,11.60
2023-02-24T17:30:27.866Z,13.00
2023-02-24T17:32:55.905Z,11.60
2023-02-24T17:35:24.035Z,12.20
2023-02-24T17:37:51.070Z,12.10
2023-02-24T17:40:18.199Z,13.40
2023-02-24T17:42:45.625Z,29.70
2023-02-24T17:45:13.846Z,28.20
2023-02-24T17:47:41.946Z,17.30
2023-02-24T17:50:11.986Z,19.60
2023-02-24T17:52:40.328Z,19.10
2023-02-24T17:55:08.141Z,16.90
2023-02-24T17:57:39.233Z,18.70
2023-02-24T18:00:07.886Z,17.90
2023-02-24T18:02:41.201Z,18.80
2023-02-24T18:05:09.568Z,17.80
2023-02-24T18:07:38.107Z,18.50
2023-02-24T18:10:05.836Z,20.50
2023-02-24T18:12:33.288Z,17.90
2023-02-24T18:15:08.358Z,17.60
2023-02-24T18:17:38.476Z,15.20
2023-02-24T18:20:11.873Z,17.20
2023-02-24T18:22:39.289Z,17.10
2023-02-24T18:25:07.253Z,15.90
2023-02-24T18:27:34.504Z,18.70
2023-02-24T18:30:01.725Z,17.50
2023-02-24T18:32:28.971Z,19.30
2023-02-24T18:34:56.225Z,19.90
2023-02-24T18:37:23.226Z,16.00
2023-02-24T18:39:52.391Z,16.40
2023-02-24T18:42:19.498Z,19.10
2023-02-24T18:44:47.569Z,18.00
2023-02-24T18:47:14.569Z,19.70
2023-02-24T18:49:42.867Z,19.00
2023-02-24T18:52:11.252Z,18.40
2023-02-24T18:54:39.629Z,19.10
2023-02-24T18:57:06.931Z,18.30
2023-02-24T18:59:34.331Z,18.50
2023-02-24T19:02:01.567Z,17.90
2023-02-24T19:04:35.027Z,18.40
2023-02-24T19:07:02.267Z,17.00
2023-02-24T19:09:29.451Z,16.10
2023-02-24T19:11:57.373Z,18.50
2023-02-24T19:14:24.482Z,15.50
2023-02-24T19:16:51.942Z,17.00
2023-02-24T19:19:22.323Z,17.90
2023-02-24T19:21:49.665Z,17.80
2023-02-24T19:24:17.210Z,16.50
2023-02-24T19:26:45.322Z,19.50
2023-02-24T19:29:16.641Z,19.00
2023-02-24T19:31:45.006Z,18.60
2023-02-24T19:34:13.628Z,18.60
2023-02-24T19:36:40.937Z,18.70
2023-02-24T19:39:14.240Z,15.50
2023-02-24T19:41:41.281Z,14.00
2023-02-24T19:44:11.964Z,15.50
2023-02-24T19:46:39.398Z,16.90
2023-02-24T19:49:06.546Z,20.60
2023-02-24T19:51:35.023Z,24.20
2023-02-24T19:54:05.294Z,52.60
2023-02-24T19:56:35.120Z,52.40
2023-02-24T19:59:05.204Z,22.20
2023-02-24T20:01:33.122Z,34.70
2023-02-24T20:04:02.168Z,24.70
2023-02-24T20:06:35.075Z,22.00
2023-02-24T20:09:09.488Z,21.30
2023-02-24T20:11:38.662Z,18.90
2023-02-24T20:14:08.984Z,20.60
2023-02-24T20:16:40.026Z,23.10
2023-02-24T20:19:13.959Z,22.80
2023-02-24T20:21:41.695Z,24.50
2023-02-24T20:24:13.985Z,23.40
2023-02-24T20:26:46.494Z,19.70
2023-02-24T20:29:16.044Z,21.70
2023-02-24T20:34:16.155Z,17.60
2023-02-24T20:36:45.188Z,18.90
2023-02-24T20:39:12.476Z,18.90
2023-02-24T20:41:39.971Z,17.50
2023-02-24T20:44:08.122Z,16.80
2023-02-24T20:46:36.448Z,17.30
2023-02-24T20:49:07.310Z,18.60
2023-02-24T20:51:39.281Z,18.10
2023-02-24T20:54:08.104Z,17.70
2023-02-24T20:56:38.575Z,17.60
2023-02-24T20:59:12.092Z,17.30
2023-02-24T21:01:39.712Z,18.70
2023-02-24T21:04:08.291Z,18.50
2023-02-24T21:06:36.605Z,15.60
2023-02-24T21:09:04.051Z,16.20
2023-02-24T21:11:32.139Z,17.20
2023-02-24T21:13:59.815Z,17.40
2023-02-24T21:16:28.491Z,17.70
2023-02-24T21:18:58.205Z,17.50
2023-02-24T21:21:26.657Z,19.00
2023-02-24T21:23:56.344Z,17.00
2023-02-24T21:26:26.226Z,11.90
2023-02-24T21:28:57.443Z,16.00
2023-02-24T21:31:26.384Z,15.10
2023-02-24T21:33:55.198Z,16.10
2023-02-24T21:36:25.362Z,14.40
2023-02-24T21:38:54.179Z,15.20
2023-02-24T21:41:21.587Z,14.40
2023-02-24T21:43:54.170Z,15.40
2023-02-24T21:46:22.367Z,18.20
2023-02-24T21:48:54.740Z,18.20
2023-02-24T21:51:24.273Z,17.80
2023-02-24T21:53:56.309Z,18.50
2023-02-24T21:56:26.356Z,16.80
2023-02-24T21:58:57.509Z,16.60
2023-02-24T22:01:33.803Z,17.10
2023-02-24T22:04:03.098Z,17.10
2023-02-24T22:06:33.478Z,14.80
2023-02-24T22:09:03.307Z,15.00
2023-02-24T22:11:34.688Z,13.80
2023-02-24T22:14:01.930Z,14.40
2023-02-24T22:16:29.398Z,15.60
2023-02-24T22:18:56.494Z,15.10
2023-02-24T22:21:26.305Z,14.60
2023-02-24T22:23:56.068Z,15.70
2023-02-24T22:26:24.931Z,16.60
2023-02-24T22:28:54.204Z,16.00
2023-02-24T22:31:23.885Z,15.20
2023-02-24T22:33:51.391Z,17.10
2023-02-24T22:36:26.447Z,16.10
2023-02-24T22:38:56.836Z,15.80
2023-02-24T22:41:27.483Z,15.50
2023-02-24T22:43:54.856Z,14.20
2023-02-24T22:46:29.407Z,13.40
2023-02-24T22:48:57.937Z,14.20
2023-02-24T22:51:26.408Z,13.90
2023-02-24T22:53:55.071Z,15.00
2023-02-24T22:56:26.080Z,14.10
2023-02-24T22:58:53.154Z,14.50
2023-02-24T23:01:25.145Z,14.90
2023-02-24T23:03:52.794Z,12.00
2023-02-24T23:06:22.867Z,14.50
2023-02-24T23:08:51.506Z,14.10
2023-02-24T23:11:31.080Z,14.10
2023-02-24T23:14:05.121Z,14.80
2023-02-24T23:16:34.080Z,15.60
2023-02-24T23:19:06.949Z,16.30
2023-02-24T23:21:38.081Z,18.00
2023-02-24T23:24:12.022Z,17.60
2023-02-24T23:26:45.282Z,14.00
2023-02-24T23:29:15.482Z,13.80
2023-02-24T23:31:43.579Z,14.60
2023-02-24T23:34:11.412Z,15.20
2023-02-24T23:36:42.995Z,17.30
2023-02-24T23:39:14.617Z,16.20
2023-02-24T23:41:41.596Z,15.80
2023-02-24T23:44:08.809Z,17.50
2023-02-24T23:46:36.545Z,16.70
2023-02-24T23:49:04.526Z,14.80
2023-02-24T23:51:47.077Z,18.90
2023-02-24T23:54:17.301Z,15.70
2023-02-24T23:56:44.684Z,14.60
2023-02-24T23:59:15.413Z,14.50
